Crystola, Colorado
Current Conditions -  °F | °C
As of 12:58 PM on Friday 24 Oct 2014 (Local Time) from KAFF Reporting Station
Clear Clear  
Wind Chill: 76°   Ceiling: Unl
Heat Index: 76°   Visibility: 10mi
Dew Point: 14°   Wind: 7mph
Humidity: 10%   Direction: NA
Pressure: 30.24"   Gusts: NA
Location:  39.0237°N, 105.099°W
Report Text: KAFF 241858Z AUTO VRB06KT 10SM CLR 24/M10 A3024 RMK AO2 SLP171 T02441100
Loading
Personal Weather Stations






























Interactive Weather Map
Tropical Storm Tracking
New forecast layout! Learn more

10-Day Weather Forecast

Advertisements
Track Severe Weather on mobile